• Join FlightAware (Why Join?)
  • Login
  • US Flag 
05:45PM EDT


 

Airport Tracker/Info


-or-


 

Live Flight TrackerFlight Track Log ✈ ASQ4252 ✈ 20-Jul-2013 ✈ KEWR - KIAD

Flight Track Log - Related Links

Times and Time Zones

All times are in EDT time to prevent confusion due to time zone crossing. See the ASQ4252 flight status page for this flight to view local times or setup timezone preferences in your user account.

Time Position Orientation Groundspeed Altitude Reporting Facility
EDT Latitude Longitude Course Direction KTS MPH feet Rate Location/Type
05:18PM 40.6667 -74.1833 270° West 177 204 1,100  Level New York TRACON
05:19PM 40.6500 -74.2500 252° West 225 259 2,400 2,100 Climbing New York TRACON
05:20PM 40.6667 -74.3333 285° West 243 280 5,400 2,880 Climbing New York TRACON
05:21PM 40.6833 -74.4835 270° West  Level FlightAware Approximate
05:21PM 40.6667 -74.4167 270° West 244 281 7,900  Level New York TRACON
05:22PM 40.6834 -74.5891 270° West  Level FlightAware Approximate
05:23PM 40.6833 -74.6948 270° West  Level FlightAware Approximate
05:23PM 40.6747 -74.5908 274° West 254 292 12,400  Level New York Center
05:24PM 40.6775 -74.7006 272° West 283 326 13,300 1,080 Climbing New York Center
05:25PM 40.6797 -74.8208 271° West 327 376 14,600 1,200 Climbing New York Center
05:26PM 40.6814 -74.9469 271° West 343 395 15,800 1,140 Climbing New York Center
05:27PM 40.6814 -75.0647 270° West 354 407 16,900 1,080 Climbing New York Center
05:28PM 40.6314 -75.1792 240° Southwest 349 402 18,000 1,140 Climbing New York Center
05:29PM 40.5531 -75.2669 220° Southwest 367 422 19,200 1,020 Climbing New York Center
05:30PM 40.5006 -75.3836 239° Southwest 372 428 20,100 360 Climbing New York Center
05:31PM 40.4475 -75.5108 241° Southwest 382 440 20,000 -60 Descending New York Center
05:32PM 40.3969 -75.6303 241° Southwest 387 445 20,000  Level New York Center
05:33PM 40.3483 -75.7492 242° Southwest 387 445 20,000  Level New York Center
05:34PM 40.2969 -75.8761 242° Southwest 381 438 20,000  Level New York Center
05:35PM 40.2372 -76.0050 239° Southwest 398 458 20,000  Level New York Center
05:36PM 40.1856 -76.1344 242° Southwest 403 464 20,000 -360 Level New York Center
05:37PM 40.1383 -76.2503 242° Southwest 403 464 19,300 -1,020 Descending New York Center
05:38PM 40.0758 -76.3864 239° Southwest 403 464 18,000 -1,320 Descending New York Center
05:39PM 40.0150 -76.5197 239° Southwest 403 464 16,700 -1,080 Descending New York Center
05:41PM 39.9333 -76.7167 242° Southwest 386 444 15,100 -660 Descending Potomac TRACON
05:42PM 39.8667 -76.8333 233° Southwest 376 433 15,000 -300 Descending Potomac TRACON
05:43PM 39.8167 -76.9333 237° Southwest 371 427 14,500 -900 Descending Potomac TRACON
05:44PM 39.7500 -77.0833 240° Southwest 366 421 13,200 -1,200 Descending Potomac TRACON
05:45PM 39.7000 -77.1833 237° Southwest 346 398 12,200 -1,500 Descending Potomac TRACON
05:46PM 39.6500 -77.2833 237° Southwest 322 371 10,200 -1,440 Descending Potomac TRACON
05:47PM 39.6000 -77.3333 218° Southwest 272 313 9,300 -960 Descending Potomac TRACON
05:48PM 39.5333 -77.3833 210° Southwest 282 325 8,400 -1,020 Descending Potomac TRACON
05:49PM 39.4500 -77.4333 205° Southwest 287 330 7,300 -1,020 Descending Potomac TRACON
05:50PM 39.3833 -77.4500 191° South 276 318 6,300 -1,020 Descending Potomac TRACON
05:51PM 39.3000 -77.4500 180° South 272 313 5,300 -1,020 Descending Potomac TRACON
05:52PM 39.2333 -77.4500 180° South 270 311 4,300 -1,020 Descending Potomac TRACON